sensor_id;sensor_type;location;lat;lon;timestamp;P1;durP1;ratioP1;P2;durP2;ratioP2
77571;SDS011;67214;47.454;18.966;2023-04-01T00:02:16;4.37;;;2.67;;
77571;SDS011;67214;47.454;18.966;2023-04-01T00:04:44;5.80;;;3.50;;
77571;SDS011;67214;47.454;18.966;2023-04-01T00:07:11;5.67;;;2.90;;
77571;SDS011;67214;47.454;18.966;2023-04-01T00:09:39;6.28;;;2.95;;
77571;SDS011;67214;47.454;18.966;2023-04-01T00:12:06;7.20;;;3.72;;
77571;SDS011;67214;47.454;18.966;2023-04-01T00:14:34;8.90;;;3.47;;
77571;SDS011;67214;47.454;18.966;2023-04-01T00:17:02;5.47;;;3.50;;
77571;SDS011;67214;47.454;18.966;2023-04-01T00:19:30;5.92;;;3.25;;
77571;SDS011;67214;47.454;18.966;2023-04-01T00:21:58;8.53;;;3.42;;
77571;SDS011;67214;47.454;18.966;2023-04-01T00:24:25;7.58;;;3.85;;
77571;SDS011;67214;47.454;18.966;2023-04-01T00:26:53;6.42;;;3.35;;
77571;SDS011;67214;47.454;18.966;2023-04-01T00:29:20;6.67;;;3.90;;
77571;SDS011;67214;47.454;18.966;2023-04-01T00:31:49;8.18;;;4.28;;
77571;SDS011;67214;47.454;18.966;2023-04-01T00:34:17;8.88;;;5.70;;
77571;SDS011;67214;47.454;18.966;2023-04-01T00:36:44;7.83;;;4.25;;
77571;SDS011;67214;47.454;18.966;2023-04-01T00:39:11;7.72;;;5.55;;
77571;SDS011;67214;47.454;18.966;2023-04-01T00:41:39;8.03;;;5.50;;
77571;SDS011;67214;47.454;18.966;2023-04-01T00:44:25;5.65;;;4.30;;
77571;SDS011;67214;47.454;18.966;2023-04-01T00:46:49;7.05;;;5.12;;
77571;SDS011;67214;47.454;18.966;2023-04-01T00:49:19;7.35;;;4.22;;
77571;SDS011;67214;47.454;18.966;2023-04-01T00:51:49;8.63;;;4.37;;
77571;SDS011;67214;47.454;18.966;2023-04-01T00:54:19;7.87;;;4.78;;
77571;SDS011;67214;47.454;18.966;2023-04-01T00:56:54;5.85;;;4.17;;
77571;SDS011;67214;47.454;18.966;2023-04-01T00:59:29;7.90;;;4.67;;
77571;SDS011;67214;47.454;18.966;2023-04-01T01:01:53;7.08;;;4.87;;
77571;SDS011;67214;47.454;18.966;2023-04-01T01:04:22;7.60;;;5.40;;
77571;SDS011;67214;47.454;18.966;2023-04-01T01:07:06;8.95;;;5.05;;
77571;SDS011;67214;47.454;18.966;2023-04-01T01:26:25;7.90;;;5.42;;
77571;SDS011;67214;47.454;18.966;2023-04-01T01:37:10;9.23;;;6.70;;
77571;SDS011;67214;47.454;18.966;2023-04-01T01:39:35;7.92;;;6.75;;
77571;SDS011;67214;47.454;18.966;2023-04-01T01:42:05;10.68;;;7.17;;
77571;SDS011;67214;47.454;18.966;2023-04-01T01:44:35;9.65;;;6.80;;
77571;SDS011;67214;47.454;18.966;2023-04-01T01:47:04;10.60;;;8.05;;
77571;SDS011;67214;47.454;18.966;2023-04-01T01:49:32;9.70;;;7.55;;
77571;SDS011;67214;47.454;18.966;2023-04-01T01:52:02;10.05;;;8.08;;
77571;SDS011;67214;47.454;18.966;2023-04-01T01:54:30;10.15;;;7.78;;
77571;SDS011;67214;47.454;18.966;2023-04-01T01:57:06;14.15;;;7.78;;
77571;SDS011;67214;47.454;18.966;2023-04-01T01:59:31;10.63;;;7.70;;
77571;SDS011;67214;47.454;18.966;2023-04-01T02:02:01;9.55;;;6.53;;
77571;SDS011;67214;47.454;18.966;2023-04-01T02:04:31;9.18;;;6.03;;
77571;SDS011;67214;47.454;18.966;2023-04-01T02:07:01;8.68;;;6.30;;
77571;SDS011;67214;47.454;18.966;2023-04-01T02:09:30;7.30;;;6.03;;
77571;SDS011;67214;47.454;18.966;2023-04-01T02:12:01;8.13;;;5.50;;
77571;SDS011;67214;47.454;18.966;2023-04-01T02:14:43;12.23;;;5.72;;
77571;SDS011;67214;47.454;18.966;2023-04-01T02:17:16;6.15;;;5.00;;
77571;SDS011;67214;47.454;18.966;2023-04-01T02:20:09;10.78;;;5.80;;
77571;SDS011;67214;47.454;18.966;2023-04-01T02:22:40;6.95;;;5.17;;
77571;SDS011;67214;47.454;18.966;2023-04-01T02:25:16;6.80;;;5.37;;
77571;SDS011;67214;47.454;18.966;2023-04-01T02:27:40;6.90;;;5.05;;
77571;SDS011;67214;47.454;18.966;2023-04-01T02:30:10;7.03;;;4.60;;
77571;SDS011;67214;47.454;18.966;2023-04-01T02:32:39;8.95;;;4.67;;
77571;SDS011;67214;47.454;18.966;2023-04-01T02:35:09;9.85;;;5.05;;
77571;SDS011;67214;47.454;18.966;2023-04-01T02:37:39;8.30;;;4.70;;
77571;SDS011;67214;47.454;18.966;2023-04-01T02:40:13;8.10;;;4.60;;
77571;SDS011;67214;47.454;18.966;2023-04-01T02:42:42;8.03;;;5.00;;
77571;SDS011;67214;47.454;18.966;2023-04-01T02:45:10;8.48;;;4.85;;
77571;SDS011;67214;47.454;18.966;2023-04-01T02:47:38;11.03;;;4.67;;
77571;SDS011;67214;47.454;18.966;2023-04-01T02:50:06;7.55;;;4.92;;
77571;SDS011;67214;47.454;18.966;2023-04-01T02:52:35;6.47;;;4.70;;
77571;SDS011;67214;47.454;18.966;2023-04-01T02:55:03;6.72;;;4.55;;
77571;SDS011;67214;47.454;18.966;2023-04-01T02:57:31;8.03;;;4.30;;
77571;SDS011;67214;47.454;18.966;2023-04-01T02:59:59;6.67;;;4.60;;
77571;SDS011;67214;47.454;18.966;2023-04-01T03:02:26;11.65;;;5.28;;
77571;SDS011;67214;47.454;18.966;2023-04-01T03:04:54;8.35;;;5.53;;
77571;SDS011;67214;47.454;18.966;2023-04-01T03:07:21;12.37;;;6.50;;
77571;SDS011;67214;47.454;18.966;2023-04-01T03:09:48;8.80;;;5.62;;
77571;SDS011;67214;47.454;18.966;2023-04-01T03:12:16;7.05;;;5.47;;
77571;SDS011;67214;47.454;18.966;2023-04-01T03:14:43;8.65;;;6.00;;
77571;SDS011;67214;47.454;18.966;2023-04-01T03:17:11;7.42;;;4.85;;
77571;SDS011;67214;47.454;18.966;2023-04-01T03:19:38;8.33;;;5.95;;
77571;SDS011;67214;47.454;18.966;2023-04-01T03:22:05;8.25;;;5.47;;
77571;SDS011;67214;47.454;18.966;2023-04-01T03:24:34;8.03;;;5.12;;
77571;SDS011;67214;47.454;18.966;2023-04-01T03:27:01;10.60;;;5.35;;
77571;SDS011;67214;47.454;18.966;2023-04-01T03:29:29;9.58;;;6.00;;
77571;SDS011;67214;47.454;18.966;2023-04-01T03:31:56;8.58;;;5.20;;
77571;SDS011;67214;47.454;18.966;2023-04-01T03:34:24;13.05;;;6.33;;
77571;SDS011;67214;47.454;18.966;2023-04-01T03:36:52;7.30;;;5.37;;
77571;SDS011;67214;47.454;18.966;2023-04-01T03:39:20;8.68;;;6.17;;
77571;SDS011;67214;47.454;18.966;2023-04-01T03:41:47;9.50;;;5.92;;
77571;SDS011;67214;47.454;18.966;2023-04-01T03:44:15;7.50;;;6.08;;
77571;SDS011;67214;47.454;18.966;2023-04-01T03:46:43;9.90;;;6.17;;
77571;SDS011;67214;47.454;18.966;2023-04-01T03:49:10;10.05;;;6.28;;
77571;SDS011;67214;47.454;18.966;2023-04-01T03:51:38;7.85;;;6.40;;
77571;SDS011;67214;47.454;18.966;2023-04-01T03:54:07;12.30;;;6.58;;
77571;SDS011;67214;47.454;18.966;2023-04-01T03:56:35;9.73;;;5.92;;
77571;SDS011;67214;47.454;18.966;2023-04-01T03:59:04;11.33;;;6.08;;
77571;SDS011;67214;47.454;18.966;2023-04-01T04:01:33;8.05;;;6.40;;
77571;SDS011;67214;47.454;18.966;2023-04-01T04:04:01;10.65;;;7.53;;
77571;SDS011;67214;47.454;18.966;2023-04-01T04:06:30;10.45;;;7.80;;
77571;SDS011;67214;47.454;18.966;2023-04-01T04:08:57;11.85;;;7.35;;
77571;SDS011;67214;47.454;18.966;2023-04-01T04:11:25;11.43;;;7.17;;
77571;SDS011;67214;47.454;18.966;2023-04-01T04:13:52;10.53;;;7.00;;
77571;SDS011;67214;47.454;18.966;2023-04-01T04:16:19;11.08;;;7.20;;
77571;SDS011;67214;47.454;18.966;2023-04-01T04:18:47;8.95;;;7.25;;
77571;SDS011;67214;47.454;18.966;2023-04-01T04:21:16;12.20;;;7.03;;
77571;SDS011;67214;47.454;18.966;2023-04-01T04:23:44;12.05;;;7.45;;
77571;SDS011;67214;47.454;18.966;2023-04-01T04:26:12;9.80;;;6.47;;
77571;SDS011;67214;47.454;18.966;2023-04-01T04:28:41;6.28;;;4.12;;
77571;SDS011;67214;47.454;18.966;2023-04-01T04:31:09;6.03;;;4.50;;
77571;SDS011;67214;47.454;18.966;2023-04-01T04:33:36;4.67;;;3.12;;
77571;SDS011;67214;47.454;18.966;2023-04-01T04:36:04;6.75;;;4.62;;
77571;SDS011;67214;47.454;18.966;2023-04-01T04:38:32;7.15;;;4.80;;
77571;SDS011;67214;47.454;18.966;2023-04-01T04:40:59;7.95;;;5.03;;
77571;SDS011;67214;47.454;18.966;2023-04-01T04:43:27;8.78;;;5.15;;
77571;SDS011;67214;47.454;18.966;2023-04-01T04:45:54;8.05;;;5.00;;
77571;SDS011;67214;47.454;18.966;2023-04-01T04:48:22;5.95;;;4.45;;
77571;SDS011;67214;47.454;18.966;2023-04-01T04:50:50;7.35;;;5.03;;
77571;SDS011;67214;47.454;18.966;2023-04-01T04:53:18;9.38;;;5.25;;
77571;SDS011;67214;47.454;18.966;2023-04-01T04:55:46;7.10;;;4.40;;
77571;SDS011;67214;47.454;18.966;2023-04-01T04:58:15;6.33;;;4.00;;
77571;SDS011;67214;47.454;18.966;2023-04-01T05:00:44;6.03;;;4.20;;
77571;SDS011;67214;47.454;18.966;2023-04-01T05:03:13;6.47;;;4.35;;
77571;SDS011;67214;47.454;18.966;2023-04-01T05:05:47;9.75;;;4.65;;
77571;SDS011;67214;47.454;18.966;2023-04-01T05:08:14;8.93;;;4.15;;
77571;SDS011;67214;47.454;18.966;2023-04-01T05:10:41;8.70;;;4.25;;
77571;SDS011;67214;47.454;18.966;2023-04-01T05:13:08;9.98;;;6.17;;
77571;SDS011;67214;47.454;18.966;2023-04-01T05:15:36;8.13;;;4.95;;
77571;SDS011;67214;47.454;18.966;2023-04-01T05:18:04;5.12;;;4.37;;
77571;SDS011;67214;47.454;18.966;2023-04-01T05:20:31;6.75;;;4.00;;
77571;SDS011;67214;47.454;18.966;2023-04-01T05:22:59;9.00;;;5.08;;
77571;SDS011;67214;47.454;18.966;2023-04-01T05:25:27;5.92;;;3.87;;
77571;SDS011;67214;47.454;18.966;2023-04-01T05:27:54;8.30;;;4.58;;
77571;SDS011;67214;47.454;18.966;2023-04-01T05:30:22;5.83;;;4.10;;
77571;SDS011;67214;47.454;18.966;2023-04-01T05:32:49;7.08;;;3.85;;
77571;SDS011;67214;47.454;18.966;2023-04-01T05:35:16;8.95;;;4.12;;
77571;SDS011;67214;47.454;18.966;2023-04-01T05:37:44;5.67;;;3.80;;
77571;SDS011;67214;47.454;18.966;2023-04-01T05:40:11;4.75;;;3.42;;
77571;SDS011;67214;47.454;18.966;2023-04-01T05:42:39;9.08;;;4.00;;
77571;SDS011;67214;47.454;18.966;2023-04-01T05:45:06;8.55;;;4.28;;
77571;SDS011;67214;47.454;18.966;2023-04-01T05:47:34;7.17;;;4.20;;
77571;SDS011;67214;47.454;18.966;2023-04-01T05:50:02;5.85;;;4.53;;
77571;SDS011;67214;47.454;18.966;2023-04-01T05:52:29;9.73;;;4.50;;
77571;SDS011;67214;47.454;18.966;2023-04-01T05:54:57;6.85;;;4.10;;
77571;SDS011;67214;47.454;18.966;2023-04-01T05:57:26;7.15;;;4.35;;
77571;SDS011;67214;47.454;18.966;2023-04-01T05:59:53;7.22;;;4.20;;
77571;SDS011;67214;47.454;18.966;2023-04-01T06:02:20;7.05;;;3.33;;
77571;SDS011;67214;47.454;18.966;2023-04-01T06:04:49;5.90;;;3.62;;
77571;SDS011;67214;47.454;18.966;2023-04-01T06:07:18;5.55;;;3.40;;
77571;SDS011;67214;47.454;18.966;2023-04-01T06:09:45;7.05;;;2.70;;
77571;SDS011;67214;47.454;18.966;2023-04-01T06:23:07;3.30;;;1.80;;
77571;SDS011;67214;47.454;18.966;2023-04-01T06:26:02;4.90;;;2.40;;
77571;SDS011;67214;47.454;18.966;2023-04-01T06:31:10;3.83;;;1.90;;
77571;SDS011;67214;47.454;18.966;2023-04-01T06:34:12;3.62;;;1.80;;
77571;SDS011;67214;47.454;18.966;2023-04-01T06:55:41;25.02;;;19.65;;
77571;SDS011;67214;47.454;18.966;2023-04-01T07:01:00;57.33;;;35.60;;
77571;SDS011;67214;47.454;18.966;2023-04-01T07:03:33;6.85;;;4.78;;
77571;SDS011;67214;47.454;18.966;2023-04-01T07:06:04;4.58;;;2.67;;
77571;SDS011;67214;47.454;18.966;2023-04-01T07:08:34;3.10;;;2.02;;
77571;SDS011;67214;47.454;18.966;2023-04-01T07:11:06;4.28;;;2.40;;
77571;SDS011;67214;47.454;18.966;2023-04-01T07:19:03;3.87;;;1.95;;
77571;SDS011;67214;47.454;18.966;2023-04-01T07:21:59;4.55;;;1.92;;
77571;SDS011;67214;47.454;18.966;2023-04-01T07:24:27;3.25;;;1.90;;
77571;SDS011;67214;47.454;18.966;2023-04-01T07:27:02;4.60;;;1.95;;
77571;SDS011;67214;47.454;18.966;2023-04-01T07:29:33;3.25;;;2.20;;
77571;SDS011;67214;47.454;18.966;2023-04-01T07:32:09;3.87;;;1.50;;
77571;SDS011;67214;47.454;18.966;2023-04-01T07:34:59;4.90;;;2.12;;
77571;SDS011;67214;47.454;18.966;2023-04-01T07:37:39;3.17;;;1.57;;
77571;SDS011;67214;47.454;18.966;2023-04-01T07:46:08;2.65;;;1.20;;
77571;SDS011;67214;47.454;18.966;2023-04-01T07:51:02;3.17;;;1.30;;
77571;SDS011;67214;47.454;18.966;2023-04-01T07:56:20;1.87;;;1.02;;
77571;SDS011;67214;47.454;18.966;2023-04-01T08:04:36;2.70;;;0.88;;
77571;SDS011;67214;47.454;18.966;2023-04-01T08:07:23;2.95;;;1.07;;
77571;SDS011;67214;47.454;18.966;2023-04-01T08:10:22;2.05;;;1.10;;
77571;SDS011;67214;47.454;18.966;2023-04-01T08:13:10;5.95;;;1.55;;
77571;SDS011;67214;47.454;18.966;2023-04-01T08:21:03;4.55;;;1.00;;
77571;SDS011;67214;47.454;18.966;2023-04-01T08:23:39;6.25;;;1.20;;
77571;SDS011;67214;47.454;18.966;2023-04-01T08:26:12;4.80;;;1.10;;
77571;SDS011;67214;47.454;18.966;2023-04-01T08:29:02;3.08;;;0.80;;
77571;SDS011;67214;47.454;18.966;2023-04-01T08:31:37;5.42;;;0.95;;
77571;SDS011;67214;47.454;18.966;2023-04-01T08:34:14;1.95;;;0.82;;
77571;SDS011;67214;47.454;18.966;2023-04-01T08:36:42;3.52;;;1.42;;
77571;SDS011;67214;47.454;18.966;2023-04-01T08:39:46;2.17;;;1.00;;
77571;SDS011;67214;47.454;18.966;2023-04-01T08:50:36;3.22;;;1.27;;
77571;SDS011;67214;47.454;18.966;2023-04-01T08:53:09;4.75;;;1.47;;
77571;SDS011;67214;47.454;18.966;2023-04-01T08:58:48;4.22;;;1.50;;
77571;SDS011;67214;47.454;18.966;2023-04-01T09:37:01;3.70;;;1.40;;
77571;SDS011;67214;47.454;18.966;2023-04-01T09:43:25;6.03;;;1.98;;
77571;SDS011;67214;47.454;18.966;2023-04-01T09:48:07;3.87;;;1.35;;
77571;SDS011;67214;47.454;18.966;2023-04-01T09:51:05;4.33;;;1.65;;
77571;SDS011;67214;47.454;18.966;2023-04-01T09:56:19;3.98;;;1.37;;
77571;SDS011;67214;47.454;18.966;2023-04-01T10:22:16;4.20;;;1.92;;
77571;SDS011;67214;47.454;18.966;2023-04-01T10:24:43;5.40;;;2.30;;
77571;SDS011;67214;47.454;18.966;2023-04-01T10:33:25;6.10;;;2.60;;
77571;SDS011;67214;47.454;18.966;2023-04-01T10:44:20;4.33;;;1.60;;
77571;SDS011;67214;47.454;18.966;2023-04-01T10:58:35;3.05;;;1.42;;
77571;SDS011;67214;47.454;18.966;2023-04-01T11:01:16;2.77;;;1.10;;
77571;SDS011;67214;47.454;18.966;2023-04-01T11:07:07;4.45;;;1.65;;
77571;SDS011;67214;47.454;18.966;2023-04-01T11:09:50;3.62;;;1.25;;
77571;SDS011;67214;47.454;18.966;2023-04-01T11:24:05;2.65;;;1.05;;
77571;SDS011;67214;47.454;18.966;2023-04-01T11:37:18;3.30;;;1.10;;
77571;SDS011;67214;47.454;18.966;2023-04-01T11:43:01;2.25;;;0.95;;
77571;SDS011;67214;47.454;18.966;2023-04-01T11:45:46;3.58;;;1.05;;
77571;SDS011;67214;47.454;18.966;2023-04-01T11:53:47;3.00;;;1.27;;
77571;SDS011;67214;47.454;18.966;2023-04-01T12:02:11;2.00;;;1.00;;
77571;SDS011;67214;47.454;18.966;2023-04-01T12:04:47;2.65;;;1.00;;
77571;SDS011;67214;47.454;18.966;2023-04-01T12:07:27;4.35;;;1.20;;
77571;SDS011;67214;47.454;18.966;2023-04-01T12:10:28;6.40;;;1.37;;
77571;SDS011;67214;47.454;18.966;2023-04-01T12:16:03;3.67;;;1.32;;
77571;SDS011;67214;47.454;18.966;2023-04-01T12:21:36;4.65;;;1.45;;
77571;SDS011;67214;47.454;18.966;2023-04-01T12:24:20;1.77;;;0.98;;
77571;SDS011;67214;47.454;18.966;2023-04-01T12:38:13;2.98;;;0.95;;
77571;SDS011;67214;47.454;18.966;2023-04-01T12:52:20;3.77;;;1.45;;
77571;SDS011;67214;47.454;18.966;2023-04-01T12:57:33;2.37;;;1.20;;
77571;SDS011;67214;47.454;18.966;2023-04-01T13:00:12;2.22;;;1.02;;
77571;SDS011;67214;47.454;18.966;2023-04-01T13:02:58;3.87;;;1.67;;
77571;SDS011;67214;47.454;18.966;2023-04-01T13:11:02;2.25;;;1.52;;
77571;SDS011;67214;47.454;18.966;2023-04-01T13:24:09;2.98;;;1.07;;
77571;SDS011;67214;47.454;18.966;2023-04-01T13:32:47;4.15;;;1.72;;
77571;SDS011;67214;47.454;18.966;2023-04-01T13:41:01;4.92;;;1.42;;
77571;SDS011;67214;47.454;18.966;2023-04-01T13:43:43;2.47;;;1.30;;
77571;SDS011;67214;47.454;18.966;2023-04-01T13:46:33;4.17;;;1.35;;
77571;SDS011;67214;47.454;18.966;2023-04-01T13:49:19;3.40;;;1.45;;
77571;SDS011;67214;47.454;18.966;2023-04-01T14:09:16;1.55;;;1.00;;
77571;SDS011;67214;47.454;18.966;2023-04-01T14:12:19;1.95;;;0.93;;
77571;SDS011;67214;47.454;18.966;2023-04-01T14:17:31;2.87;;;1.07;;
77571;SDS011;67214;47.454;18.966;2023-04-01T14:20:08;2.87;;;1.05;;
77571;SDS011;67214;47.454;18.966;2023-04-01T14:30:48;1.12;;;0.85;;
77571;SDS011;67214;47.454;18.966;2023-04-01T14:36:29;1.17;;;0.60;;
77571;SDS011;67214;47.454;18.966;2023-04-01T14:47:22;2.55;;;1.32;;
77571;SDS011;67214;47.454;18.966;2023-04-01T14:50:02;3.95;;;1.30;;
77571;SDS011;67214;47.454;18.966;2023-04-01T14:52:23;3.25;;;1.15;;
77571;SDS011;67214;47.454;18.966;2023-04-01T14:54:52;2.80;;;1.55;;
77571;SDS011;67214;47.454;18.966;2023-04-01T14:57:23;3.05;;;1.40;;
77571;SDS011;67214;47.454;18.966;2023-04-01T14:59:58;2.22;;;1.00;;
77571;SDS011;67214;47.454;18.966;2023-04-01T15:05:36;2.83;;;1.60;;
77571;SDS011;67214;47.454;18.966;2023-04-01T15:08:20;2.70;;;1.42;;
77571;SDS011;67214;47.454;18.966;2023-04-01T15:10:52;4.15;;;1.50;;
77571;SDS011;67214;47.454;18.966;2023-04-01T15:19:14;7.83;;;3.20;;
77571;SDS011;67214;47.454;18.966;2023-04-01T15:21:49;4.45;;;1.67;;
77571;SDS011;67214;47.454;18.966;2023-04-01T15:27:15;7.22;;;2.70;;
77571;SDS011;67214;47.454;18.966;2023-04-01T15:29:54;2.77;;;1.35;;
77571;SDS011;67214;47.454;18.966;2023-04-01T15:35:18;2.35;;;1.30;;
77571;SDS011;67214;47.454;18.966;2023-04-01T15:38:06;2.20;;;1.05;;
77571;SDS011;67214;47.454;18.966;2023-04-01T15:41:06;5.53;;;1.92;;
77571;SDS011;67214;47.454;18.966;2023-04-01T15:43:45;3.02;;;1.90;;
77571;SDS011;67214;47.454;18.966;2023-04-01T15:49:04;1.57;;;0.50;;
77571;SDS011;67214;47.454;18.966;2023-04-01T15:57:27;3.62;;;1.67;;
77571;SDS011;67214;47.454;18.966;2023-04-01T16:00:19;2.42;;;1.20;;
77571;SDS011;67214;47.454;18.966;2023-04-01T16:02:52;2.12;;;1.40;;
77571;SDS011;67214;47.454;18.966;2023-04-01T16:06:00;2.52;;;0.80;;
77571;SDS011;67214;47.454;18.966;2023-04-01T16:11:31;5.62;;;2.80;;
77571;SDS011;67214;47.454;18.966;2023-04-01T16:14:07;4.15;;;2.20;;
77571;SDS011;67214;47.454;18.966;2023-04-01T16:19:32;3.22;;;1.67;;
77571;SDS011;67214;47.454;18.966;2023-04-01T16:22:02;1.75;;;1.25;;
77571;SDS011;67214;47.454;18.966;2023-04-01T16:27:46;2.17;;;1.20;;
77571;SDS011;67214;47.454;18.966;2023-04-01T16:29:45;1.35;;;0.90;;
77571;SDS011;67214;47.454;18.966;2023-04-01T16:37:54;4.58;;;0.88;;
77571;SDS011;67214;47.454;18.966;2023-04-01T16:40:42;2.10;;;0.90;;
77571;SDS011;67214;47.454;18.966;2023-04-01T16:43:13;2.98;;;1.07;;
77571;SDS011;67214;47.454;18.966;2023-04-01T16:51:46;3.33;;;0.90;;
77571;SDS011;67214;47.454;18.966;2023-04-01T16:57:18;2.17;;;1.00;;
77571;SDS011;67214;47.454;18.966;2023-04-01T17:02:52;3.27;;;2.22;;
77571;SDS011;67214;47.454;18.966;2023-04-01T17:05:16;1.40;;;0.82;;
77571;SDS011;67214;47.454;18.966;2023-04-01T17:15:51;18.95;;;17.30;;
77571;SDS011;67214;47.454;18.966;2023-04-01T17:18:23;6.85;;;6.15;;
77571;SDS011;67214;47.454;18.966;2023-04-01T17:21:09;14.87;;;13.50;;
77571;SDS011;67214;47.454;18.966;2023-04-01T17:23:43;8.48;;;6.97;;
77571;SDS011;67214;47.454;18.966;2023-04-01T17:26:16;6.40;;;5.00;;
77571;SDS011;67214;47.454;18.966;2023-04-01T17:28:57;5.87;;;5.28;;
77571;SDS011;67214;47.454;18.966;2023-04-01T17:31:45;6.05;;;5.30;;
77571;SDS011;67214;47.454;18.966;2023-04-01T17:45:11;4.78;;;4.25;;
77571;SDS011;67214;47.454;18.966;2023-04-01T17:47:58;1.92;;;1.60;;
77571;SDS011;67214;47.454;18.966;2023-04-01T17:50:46;7.50;;;4.87;;
77571;SDS011;67214;47.454;18.966;2023-04-01T17:56:39;7.75;;;3.55;;
77571;SDS011;67214;47.454;18.966;2023-04-01T18:01:57;6.90;;;5.62;;
77571;SDS011;67214;47.454;18.966;2023-04-01T18:04:35;16.67;;;8.38;;
77571;SDS011;67214;47.454;18.966;2023-04-01T18:21:37;12.43;;;7.97;;
77571;SDS011;67214;47.454;18.966;2023-04-01T18:24:32;14.63;;;9.50;;
77571;SDS011;67214;47.454;18.966;2023-04-01T18:27:06;18.85;;;9.45;;
77571;SDS011;67214;47.454;18.966;2023-04-01T18:29:41;17.92;;;11.05;;
77571;SDS011;67214;47.454;18.966;2023-04-01T18:34:58;13.85;;;10.40;;
77571;SDS011;67214;47.454;18.966;2023-04-01T18:37:54;12.45;;;7.75;;
77571;SDS011;67214;47.454;18.966;2023-04-01T18:40:29;11.00;;;6.80;;
77571;SDS011;67214;47.454;18.966;2023-04-01T18:43:14;11.35;;;6.40;;
77571;SDS011;67214;47.454;18.966;2023-04-01T18:45:57;8.58;;;5.95;;
77571;SDS011;67214;47.454;18.966;2023-04-01T18:57:10;17.07;;;9.23;;
77571;SDS011;67214;47.454;18.966;2023-04-01T18:59:55;13.38;;;6.55;;
77571;SDS011;67214;47.454;18.966;2023-04-01T19:05:31;9.65;;;5.90;;
77571;SDS011;67214;47.454;18.966;2023-04-01T19:07:52;14.93;;;6.12;;
77571;SDS011;67214;47.454;18.966;2023-04-01T19:13:02;10.10;;;6.20;;
77571;SDS011;67214;47.454;18.966;2023-04-01T19:15:32;9.68;;;5.67;;
77571;SDS011;67214;47.454;18.966;2023-04-01T19:24:25;12.82;;;5.62;;
77571;SDS011;67214;47.454;18.966;2023-04-01T19:26:57;10.55;;;5.85;;
77571;SDS011;67214;47.454;18.966;2023-04-01T19:29:40;10.90;;;5.65;;
77571;SDS011;67214;47.454;18.966;2023-04-01T19:32:14;13.25;;;5.95;;
77571;SDS011;67214;47.454;18.966;2023-04-01T19:37:51;22.67;;;10.32;;
77571;SDS011;67214;47.454;18.966;2023-04-01T19:43:22;13.70;;;7.75;;
77571;SDS011;67214;47.454;18.966;2023-04-01T19:45:55;19.05;;;9.30;;
77571;SDS011;67214;47.454;18.966;2023-04-01T19:48:42;14.20;;;7.20;;
77571;SDS011;67214;47.454;18.966;2023-04-01T19:56:17;11.30;;;6.70;;
77571;SDS011;67214;47.454;18.966;2023-04-01T19:58:54;16.37;;;7.57;;
77571;SDS011;67214;47.454;18.966;2023-04-01T20:01:32;18.12;;;7.92;;
77571;SDS011;67214;47.454;18.966;2023-04-01T20:04:06;12.15;;;6.15;;
77571;SDS011;67214;47.454;18.966;2023-04-01T20:06:53;13.78;;;6.17;;
77571;SDS011;67214;47.454;18.966;2023-04-01T20:11:55;18.42;;;9.30;;
77571;SDS011;67214;47.454;18.966;2023-04-01T20:17:47;28.98;;;12.63;;
77571;SDS011;67214;47.454;18.966;2023-04-01T20:25:16;9.38;;;4.20;;
77571;SDS011;67214;47.454;18.966;2023-04-01T20:27:58;6.97;;;3.65;;
77571;SDS011;67214;47.454;18.966;2023-04-01T20:31:06;6.47;;;3.50;;
77571;SDS011;67214;47.454;18.966;2023-04-01T20:38:59;8.05;;;3.75;;
77571;SDS011;67214;47.454;18.966;2023-04-01T20:47:45;10.70;;;5.60;;
77571;SDS011;67214;47.454;18.966;2023-04-01T20:50:28;11.63;;;5.58;;
77571;SDS011;67214;47.454;18.966;2023-04-01T20:53:15;10.78;;;5.33;;
77571;SDS011;67214;47.454;18.966;2023-04-01T21:03:56;12.25;;;6.55;;
77571;SDS011;67214;47.454;18.966;2023-04-01T21:14:59;10.98;;;6.83;;
77571;SDS011;67214;47.454;18.966;2023-04-01T21:17:41;11.53;;;6.28;;
77571;SDS011;67214;47.454;18.966;2023-04-01T21:26:20;8.53;;;5.92;;
77571;SDS011;67214;47.454;18.966;2023-04-01T21:31:25;10.58;;;5.85;;
77571;SDS011;67214;47.454;18.966;2023-04-01T21:34:08;7.85;;;4.83;;
77571;SDS011;67214;47.454;18.966;2023-04-01T21:36:52;8.88;;;4.50;;
77571;SDS011;67214;47.454;18.966;2023-04-01T21:39:22;10.53;;;5.30;;
77571;SDS011;67214;47.454;18.966;2023-04-01T22:09:18;3.87;;;2.75;;
77571;SDS011;67214;47.454;18.966;2023-04-01T22:11:57;4.42;;;2.62;;
77571;SDS011;67214;47.454;18.966;2023-04-01T22:14:44;6.08;;;3.22;;
77571;SDS011;67214;47.454;18.966;2023-04-01T22:17:24;6.12;;;3.05;;
77571;SDS011;67214;47.454;18.966;2023-04-01T22:19:59;6.00;;;3.02;;
77571;SDS011;67214;47.454;18.966;2023-04-01T22:28:38;3.45;;;2.08;;
77571;SDS011;67214;47.454;18.966;2023-04-01T22:30:59;2.77;;;1.57;;
77571;SDS011;67214;47.454;18.966;2023-04-01T22:36:19;2.22;;;1.52;;
77571;SDS011;67214;47.454;18.966;2023-04-01T22:44:47;2.12;;;1.30;;
77571;SDS011;67214;47.454;18.966;2023-04-01T22:50:18;3.92;;;1.32;;
77571;SDS011;67214;47.454;18.966;2023-04-01T22:52:46;2.47;;;1.62;;
77571;SDS011;67214;47.454;18.966;2023-04-01T22:55:29;3.80;;;1.67;;
77571;SDS011;67214;47.454;18.966;2023-04-01T22:57:59;3.55;;;1.40;;
77571;SDS011;67214;47.454;18.966;2023-04-01T23:00:35;2.90;;;1.60;;
77571;SDS011;67214;47.454;18.966;2023-04-01T23:05:58;1.80;;;1.05;;
77571;SDS011;67214;47.454;18.966;2023-04-01T23:14:08;0.95;;;0.80;;
77571;SDS011;67214;47.454;18.966;2023-04-01T23:16:39;1.47;;;0.90;;
77571;SDS011;67214;47.454;18.966;2023-04-01T23:19:15;1.17;;;0.75;;
77571;SDS011;67214;47.454;18.966;2023-04-01T23:21:51;2.15;;;0.70;;
77571;SDS011;67214;47.454;18.966;2023-04-01T23:24:34;1.25;;;0.80;;
77571;SDS011;67214;47.454;18.966;2023-04-01T23:27:08;1.20;;;0.70;;
77571;SDS011;67214;47.454;18.966;2023-04-01T23:29:41;2.37;;;0.80;;
77571;SDS011;67214;47.454;18.966;2023-04-01T23:32:15;1.30;;;0.65;;
77571;SDS011;67214;47.454;18.966;2023-04-01T23:34:50;1.15;;;0.80;;
77571;SDS011;67214;47.454;18.966;2023-04-01T23:37:20;2.08;;;0.93;;
77571;SDS011;67214;47.454;18.966;2023-04-01T23:39:50;3.17;;;1.17;;
77571;SDS011;67214;47.454;18.966;2023-04-01T23:45:05;1.87;;;1.17;;
77571;SDS011;67214;47.454;18.966;2023-04-01T23:47:30;1.25;;;0.80;;
77571;SDS011;67214;47.454;18.966;2023-04-01T23:52:51;1.12;;;0.82;;
77571;SDS011;67214;47.454;18.966;2023-04-01T23:55:29;2.22;;;1.10;;
77571;SDS011;67214;47.454;18.966;2023-04-01T23:58:20;1.45;;;0.72;;
